Time;durP1;ratioP1;P1;durP2;ratioP2;P2;SDS_P1;SDS_P2;PMS_P1;PMS_P2;Temp;Humidity;BMP_temperature;BMP_pressure;BME280_temperature;BME280_humidity;BME280_pressure;Samples;Min_cycle;Max_cycle;Signal;HPM_P1;HPM_P2
2022/07/21 00:01:04;;;;;;;;;;;563.50;1664.00;;;;;;5091199;28;20383;-53
2022/07/21 00:03:30;;;;;;;;;;;563.40;1664.00;;;;;;5091218;28;19953;-52
2022/07/21 00:05:56;;;;;;;;;;;563.40;1689.60;;;;;;5090707;28;19908;-56
2022/07/21 00:08:21;;;;;;;;;;;563.30;1664.00;;;;;;5090820;28;19915;-55
2022/07/21 00:10:47;;;;;;;;;;;563.20;1689.60;;;;;;5090833;28;20362;-53
2022/07/21 00:13:13;;;;;;;;;;;563.30;1664.00;;;;;;5090764;28;20388;-54
2022/07/21 00:15:38;;;;;;;;;;;563.20;1689.60;;;;;;5090573;28;19918;-55
2022/07/21 00:18:04;;;;;;;;;;;538.50;1664.00;;;;;;5090745;28;19912;-54
2022/07/21 00:20:32;;;;;;;;;;;538.50;1664.00;;;;;;5090153;28;19956;-53
2022/07/21 00:22:58;;;;;;;;;;;538.50;1664.00;;;;;;5090122;28;19918;-56
2022/07/21 00:25:24;;;;;;;;;;;538.50;1664.00;;;;;;5090829;28;20362;-54
2022/07/21 00:27:50;;;;;;;;;;;538.50;1689.60;;;;;;5090430;28;19908;-53
2022/07/21 00:30:15;;;;;;;;;;;538.40;1664.00;;;;;;5090404;28;19912;-54
2022/07/21 00:32:41;;;;;;;;;;;538.40;1689.60;;;;;;5090358;28;20275;-54
2022/07/21 00:35:07;;;;;;;;;;;538.30;1664.00;;;;;;5090058;28;19920;-54
2022/07/21 00:37:33;;;;;;;;;;;538.30;1689.60;;;;;;5090193;28;20011;-54
2022/07/21 00:39:58;;;;;;;;;;;538.20;1664.00;;;;;;5090456;28;20006;-52
2022/07/21 00:42:25;;;;;;;;;;;538.20;1664.00;;;;;;5090290;28;19942;-55
2022/07/21 00:44:50;;;;;;;;;;;538.20;1664.00;;;;;;5090278;28;19908;-54
2022/07/21 00:47:23;;;;;;;;;;;538.10;1664.00;;;;;;5089784;28;19931;-53
2022/07/21 00:49:49;;;;;;;;;;;538.10;1689.60;;;;;;5089968;28;19964;-54
2022/07/21 00:52:14;;;;;;;;;;;538.10;1689.60;;;;;;5089125;28;19995;-55
2022/07/21 00:54:40;;;;;;;;;;;538.00;1689.60;;;;;;5090203;28;20066;-52
2022/07/21 00:57:06;;;;;;;;;;;538.10;1689.60;;;;;;5089675;28;20373;-57
2022/07/21 00:59:31;;;;;;;;;;;538.10;1664.00;;;;;;5089691;28;19915;-54
2022/07/21 01:01:57;;;;;;;;;;;538.10;1689.60;;;;;;5089611;28;20059;-55
2022/07/21 01:04:23;;;;;;;;;;;538.10;1689.60;;;;;;5090070;28;20121;-55
2022/07/21 01:06:48;;;;;;;;;;;538.00;1689.60;;;;;;5089664;28;19981;-54
2022/07/21 01:09:14;;;;;;;;;;;538.00;1715.20;;;;;;5088366;28;19912;-54
2022/07/21 01:11:40;;;;;;;;;;;538.00;1689.60;;;;;;5089507;28;19920;-55
2022/07/21 01:14:05;;;;;;;;;;;538.00;1689.60;;;;;;5089277;28;20433;-55
2022/07/21 01:16:31;;;;;;;;;;;538.00;1689.60;;;;;;5089659;28;19963;-54
2022/07/21 01:18:57;;;;;;;;;;;537.90;1740.80;;;;;;5089595;28;19923;-52
2022/07/21 01:21:30;;;;;;;;;;;537.90;1715.20;;;;;;5089520;28;19912;-54
2022/07/21 01:23:56;;;;;;;;;;;537.90;1715.20;;;;;;5088907;28;19944;-55
2022/07/21 01:26:22;;;;;;;;;;;537.80;1715.20;;;;;;5089393;28;19970;-54
2022/07/21 01:28:47;;;;;;;;;;;537.90;1689.60;;;;;;5089347;28;20280;-54
2022/07/21 01:31:13;;;;;;;;;;;537.90;1689.60;;;;;;5089523;28;19982;-54
2022/07/21 01:33:39;;;;;;;;;;;537.90;1689.60;;;;;;5089315;28;19991;-54
2022/07/21 01:36:05;;;;;;;;;;;537.90;1715.20;;;;;;5089118;28;19923;-55
2022/07/21 01:41:31;;;;;;;;;;;537.70;1740.80;;;;;;5089118;28;19934;-55
2022/07/21 01:43:58;;;;;;;;;;;537.60;1740.80;;;;;;5089215;28;20443;-54
2022/07/21 01:46:24;;;;;;;;;;;537.60;1715.20;;;;;;5089362;28;19945;-54
2022/07/21 01:48:49;;;;;;;;;;;537.70;1715.20;;;;;;5088853;28;20012;-54
2022/07/21 01:51:15;;;;;;;;;;;537.70;1715.20;;;;;;5089047;28;20011;-55
2022/07/21 01:53:40;;;;;;;;;;;537.70;1715.20;;;;;;5089296;28;20362;-54
2022/07/21 01:56:06;;;;;;;;;;;537.70;1715.20;;;;;;5088929;28;20420;-55
2022/07/21 01:58:32;;;;;;;;;;;537.60;1715.20;;;;;;5089276;28;20003;-54
2022/07/21 02:00:58;;;;;;;;;;;537.60;1715.20;;;;;;5088748;28;19995;-54
2022/07/21 02:03:23;;;;;;;;;;;512.90;1689.60;;;;;;5088893;28;19912;-54
2022/07/21 02:05:49;;;;;;;;;;;512.90;1689.60;;;;;;5088676;28;20273;-54
2022/07/21 02:08:15;;;;;;;;;;;512.90;1689.60;;;;;;5088938;28;20046;-55
2022/07/21 02:10:40;;;;;;;;;;;512.90;1689.60;;;;;;5088749;28;19924;-54
2022/07/21 02:13:06;;;;;;;;;;;512.90;1689.60;;;;;;5088887;28;19919;-54
2022/07/21 02:15:32;;;;;;;;;;;512.90;1689.60;;;;;;5088736;28;19908;-52
2022/07/21 02:17:58;;;;;;;;;;;512.80;1689.60;;;;;;5088267;28;19912;-54
2022/07/21 02:20:23;;;;;;;;;;;512.80;1689.60;;;;;;5088802;28;19909;-54
2022/07/21 02:22:49;;;;;;;;;;;512.80;1715.20;;;;;;5088689;28;20282;-54
2022/07/21 02:25:15;;;;;;;;;;;512.70;1715.20;;;;;;5088922;28;20680;-54
2022/07/21 02:27:42;;;;;;;;;;;512.70;1689.60;;;;;;5088790;28;19915;-54
2022/07/21 02:30:07;;;;;;;;;;;512.80;1689.60;;;;;;5088732;28;19938;-54
2022/07/21 02:32:33;;;;;;;;;;;512.70;1715.20;;;;;;5088467;28;20313;-53
2022/07/21 02:34:58;;;;;;;;;;;512.80;1689.60;;;;;;5088600;28;19908;-55
2022/07/21 02:37:24;;;;;;;;;;;512.80;1715.20;;;;;;5090901;28;20005;-54
2022/07/21 02:39:49;;;;;;;;;;;512.80;1715.20;;;;;;5092492;28;19961;-56
2022/07/21 02:42:15;;;;;;;;;;;512.80;1715.20;;;;;;5092498;28;19916;-54
2022/07/21 02:44:40;;;;;;;;;;;512.70;1715.20;;;;;;5092280;28;19914;-54
2022/07/21 02:47:06;;;;;;;;;;;512.60;1715.20;;;;;;5092408;28;20312;-54
2022/07/21 02:49:32;;;;;;;;;;;512.70;1740.80;;;;;;5092459;28;19919;-54
2022/07/21 02:51:57;;;;;;;;;;;512.50;1766.40;;;;;;5092145;28;19919;-54
2022/07/21 02:54:23;;;;;;;;;;;512.40;1766.40;;;;;;5092401;28;20015;-55
2022/07/21 02:56:48;;;;;;;;;;;512.30;1792.00;;;;;;5091822;28;19916;-54
2022/07/21 02:59:14;;;;;;;;;;;512.30;1792.00;;;;;;5092340;28;19912;-54
2022/07/21 03:01:40;;;;;;;;;;;512.20;1792.00;;;;;;5092029;28;19926;-54
2022/07/21 03:04:05;;;;;;;;;;;512.30;1792.00;;;;;;5092120;28;19965;-55
2022/07/21 03:06:31;;;;;;;;;;;512.30;1766.40;;;;;;5092121;28;20331;-57
2022/07/21 03:08:56;;;;;;;;;;;512.30;1766.40;;;;;;5091790;28;19912;-54
2022/07/21 03:11:22;;;;;;;;;;;512.30;1792.00;;;;;;5091663;28;20408;-54
2022/07/21 03:13:48;;;;;;;;;;;512.30;1792.00;;;;;;5091954;28;19913;-54
2022/07/21 03:16:13;;;;;;;;;;;512.20;1792.00;;;;;;5091900;28;19916;-55
2022/07/21 03:18:39;;;;;;;;;;;512.20;1792.00;;;;;;5090132;28;19915;-54
2022/07/21 03:21:04;;;;;;;;;;;512.30;1792.00;;;;;;5091886;28;19912;-55
2022/07/21 03:23:30;;;;;;;;;;;512.30;1792.00;;;;;;5091144;28;19919;-54
2022/07/21 03:25:55;;;;;;;;;;;512.30;1792.00;;;;;;5091953;28;19912;-55
2022/07/21 03:28:21;;;;;;;;;;;512.30;1792.00;;;;;;5092038;28;20358;-54
2022/07/21 03:30:47;;;;;;;;;;;512.30;1792.00;;;;;;5091550;28;19939;-56
2022/07/21 03:33:12;;;;;;;;;;;512.30;1792.00;;;;;;5091736;28;19965;-54
2022/07/21 03:35:38;;;;;;;;;;;512.30;1792.00;;;;;;5091263;28;20463;-55
2022/07/21 03:38:04;;;;;;;;;;;512.30;1792.00;;;;;;5091394;28;20429;-53
2022/07/21 03:40:30;;;;;;;;;;;512.30;1792.00;;;;;;5091432;28;20362;-54
2022/07/21 03:42:57;;;;;;;;;;;512.50;1766.40;;;;;;5091575;28;19912;-53
2022/07/21 03:45:23;;;;;;;;;;;512.60;1766.40;;;;;;5091566;28;19916;-55
2022/07/21 03:47:49;;;;;;;;;;;512.60;1766.40;;;;;;5090725;28;20366;-54
2022/07/21 03:50:17;;;;;;;;;;;512.70;1766.40;;;;;;5091010;28;19923;-54
2022/07/21 03:52:43;;;;;;;;;;;512.70;1766.40;;;;;;5091217;28;19946;-55
2022/07/21 03:55:08;;;;;;;;;;;512.70;1766.40;;;;;;5091142;28;19995;-54
2022/07/21 03:57:38;;;;;;;;;;;512.80;1740.80;;;;;;5091187;28;19923;-55
2022/07/21 04:00:07;;;;;;;;;;;537.60;1740.80;;;;;;5093280;28;20017;-56
2022/07/21 04:02:33;;;;;;;;;;;537.70;1740.80;;;;;;5093096;28;19909;-55
2022/07/21 04:04:59;;;;;;;;;;;537.80;1740.80;;;;;;5092553;28;19909;-55
2022/07/21 04:07:24;;;;;;;;;;;537.90;1766.40;;;;;;5092497;28;19909;-55
2022/07/21 04:09:50;;;;;;;;;;;512.80;1792.00;;;;;;5092382;28;19999;-55
2022/07/21 04:12:15;;;;;;;;;;;512.80;1817.60;;;;;;5092305;28;19916;-55
2022/07/21 04:14:41;;;;;;;;;;;512.90;1817.60;;;;;;5092456;28;19934;-56
2022/07/21 04:17:06;;;;;;;;;;;512.90;1817.60;;;;;;5092111;28;20120;-54
2022/07/21 04:19:32;;;;;;;;;;;537.70;1817.60;;;;;;5092386;28;20384;-55
2022/07/21 04:21:58;;;;;;;;;;;537.80;1817.60;;;;;;5092226;28;20322;-55
2022/07/21 04:24:23;;;;;;;;;;;538.00;1817.60;;;;;;5092170;28;19908;-54
2022/07/21 04:26:49;;;;;;;;;;;538.00;1792.00;;;;;;5092240;28;20352;-55
2022/07/21 04:29:14;;;;;;;;;;;538.10;1792.00;;;;;;5092205;28;20333;-55
2022/07/21 04:31:40;;;;;;;;;;;538.10;1792.00;;;;;;5091927;28;19908;-55
2022/07/21 04:34:05;;;;;;;;;;;538.20;1766.40;;;;;;5091941;28;19958;-56
2022/07/21 04:36:31;;;;;;;;;;;538.30;1766.40;;;;;;5092094;28;19916;-54
2022/07/21 04:38:57;;;;;;;;;;;538.50;1740.80;;;;;;5091773;28;19913;-54
2022/07/21 04:41:22;;;;;;;;;;;538.50;1740.80;;;;;;5091856;28;19918;-56
2022/07/21 04:43:48;;;;;;;;;;;563.30;1766.40;;;;;;5091556;28;20010;-54
2022/07/21 04:46:15;;;;;;;;;;;563.40;1740.80;;;;;;5091928;28;19915;-56
2022/07/21 04:48:40;;;;;;;;;;;563.60;1740.80;;;;;;5091505;28;19951;-55
2022/07/21 04:51:06;;;;;;;;;;;615.30;1561.60;;;;;;5091508;28;19960;-54
2022/07/21 04:53:31;;;;;;;;;;;665.60;1484.80;;;;;;5091634;28;19909;-55
2022/07/21 04:55:57;;;;;;;;;;;717.20;1356.80;;;;;;5091451;28;20002;-53
2022/07/21 04:58:23;;;;;;;;;;;768.90;1228.80;;;;;;5091827;28;19919;-56
2022/07/21 05:00:48;;;;;;;;;;;819.70;1152.00;;;;;;5090453;28;20328;-54
2022/07/21 05:03:14;;;;;;;;;;;820.00;1126.40;;;;;;5091628;28;19913;-55
2022/07/21 05:05:40;;;;;;;;;;;870.70;1075.20;;;;;;5091234;28;19934;-54
2022/07/21 05:08:05;;;;;;;;;;;870.50;1075.20;;;;;;5091242;28;19954;-56
2022/07/21 05:10:31;;;;;;;;;;;871.10;1049.60;;;;;;5091310;28;19916;-54
2022/07/21 05:12:56;;;;;;;;;;;896.90;998.40;;;;;;5091277;28;20149;-56
2022/07/21 05:15:22;;;;;;;;;;;922.20;998.40;;;;;;5091222;28;19912;-56
2022/07/21 05:17:48;;;;;;;;;;;972.90;947.20;;;;;;5091086;28;19912;-54
2022/07/21 05:20:13;;;;;;;;;;;972.90;947.20;;;;;;5091263;28;19914;-54
2022/07/21 05:22:39;;;;;;;;;;;972.90;947.20;;;;;;5090877;28;19908;-54
2022/07/21 05:25:05;;;;;;;;;;;973.10;947.20;;;;;;5091052;28;19999;-55
2022/07/21 05:27:31;;;;;;;;;;;972.90;947.20;;;;;;5091146;28;19909;-54
2022/07/21 05:29:56;;;;;;;;;;;948.10;947.20;;;;;;5091040;28;19912;-55
2022/07/21 05:32:22;;;;;;;;;;;973.20;921.60;;;;;;5091167;28;19954;-54
2022/07/21 05:34:47;;;;;;;;;;;973.70;921.60;;;;;;5090818;28;19913;-55
2022/07/21 05:37:13;;;;;;;;;;;998.60;947.20;;;;;;5090982;28;20274;-56
2022/07/21 05:39:38;;;;;;;;;;;999.30;921.60;;;;;;5090656;28;19991;-55
2022/07/21 05:42:04;;;;;;;;;;;1024.50;921.60;;;;;;5090702;28;19978;-54
2022/07/21 05:44:30;;;;;;;;;;;1024.60;896.00;;;;;;5090770;28;19908;-55
2022/07/21 05:46:55;;;;;;;;;;;1024.50;921.60;;;;;;5090758;28;19931;-56
2022/07/21 05:49:21;;;;;;;;;;;1050.50;896.00;;;;;;5090949;28;20418;-55
2022/07/21 05:51:46;;;;;;;;;;;1075.50;870.40;;;;;;5090576;28;20312;-56
2022/07/21 05:54:12;;;;;;;;;;;1075.50;870.40;;;;;;5090756;28;19908;-56
2022/07/21 05:56:37;;;;;;;;;;;1076.10;844.80;;;;;;5090399;28;19927;-56
2022/07/21 05:59:03;;;;;;;;;;;1100.90;844.80;;;;;;5090646;28;19908;-55
2022/07/21 06:01:29;;;;;;;;;;;1101.30;844.80;;;;;;5090431;28;19927;-55
2022/07/21 06:03:55;;;;;;;;;;;;;;;;;;5090560;28;20278;-55
2022/07/21 06:06:22;;;;;;;;;;;1075.80;844.80;;;;;;5090453;28;19904;-55
2022/07/21 06:08:48;;;;;;;;;;;1101.40;844.80;;;;;;5090458;28;20270;-56
2022/07/21 06:11:15;;;;;;;;;;;1126.60;844.80;;;;;;5092426;28;19920;-55
2022/07/21 06:13:41;;;;;;;;;;;;;;;;;;5094654;28;19915;-56
2022/07/21 06:16:07;;;;;;;;;;;1152.10;819.20;;;;;;5094465;28;19912;-57
2022/07/21 06:18:32;;;;;;;;;;;1152.50;819.20;;;;;;5094966;28;19908;-56
2022/07/21 06:20:58;;;;;;;;;;;1152.40;793.60;;;;;;5094677;28;19908;-55
2022/07/21 06:23:24;;;;;;;;;;;1178.10;768.00;;;;;;5094613;28;20277;-56
2022/07/21 06:25:50;;;;;;;;;;;1203.60;768.00;;;;;;5094355;28;20273;-55
2022/07/21 06:28:16;;;;;;;;;;;1203.20;768.00;;;;;;5094325;28;19915;-56
2022/07/21 06:30:42;;;;;;;;;;;1178.30;742.40;;;;;;5094495;28;19908;-56
2022/07/21 06:33:07;;;;;;;;;;;1203.60;742.40;;;;;;5094340;28;19919;-55
2022/07/21 06:35:33;;;;;;;;;;;1178.20;742.40;;;;;;5094274;28;19933;-57
2022/07/21 06:37:59;;;;;;;;;;;1203.60;768.00;;;;;;5094249;28;19935;-56
2022/07/21 06:40:25;;;;;;;;;;;1178.20;768.00;;;;;;5094259;28;19997;-57
2022/07/21 06:42:50;;;;;;;;;;;1203.40;768.00;;;;;;5094033;28;19909;-57
2022/07/21 06:45:16;;;;;;;;;;;1203.80;768.00;;;;;;5093152;28;19927;-56
2022/07/21 06:47:41;;;;;;;;;;;1203.40;768.00;;;;;;5092447;28;19939;-55
2022/07/21 06:50:08;;;;;;;;;;;1229.20;768.00;;;;;;5092846;28;20369;-53
2022/07/21 06:52:34;;;;;;;;;;;1229.20;742.40;;;;;;5093229;28;19908;-58
2022/07/21 06:54:59;;;;;;;;;;;1254.40;742.40;;;;;;5093025;28;19944;-56
2022/07/21 06:57:25;;;;;;;;;;;1280.40;716.80;;;;;;5093387;28;19959;-56
2022/07/21 06:59:51;;;;;;;;;;;1255.30;716.80;;;;;;5092645;28;19957;-56
2022/07/21 07:02:16;;;;;;;;;;;1254.90;716.80;;;;;;5091658;28;19923;-58
2022/07/21 07:04:43;;;;;;;;;;;1254.90;716.80;;;;;;5093454;28;19954;-57
2022/07/21 07:07:09;;;;;;;;;;;1254.40;742.40;;;;;;5093296;28;19911;-57
2022/07/21 07:09:34;;;;;;;;;;;1229.50;716.80;;;;;;5089583;28;19919;-60
2022/07/21 07:12:03;;;;;;;;;;;1229.50;716.80;;;;;;5091058;28;20347;-57
2022/07/21 07:14:33;;;;;;;;;;;1229.40;716.80;;;;;;5091300;28;19919;-56
2022/07/21 07:16:59;;;;;;;;;;;1228.80;742.40;;;;;;5091384;28;20443;-57
2022/07/21 07:19:24;;;;;;;;;;;1203.60;742.40;;;;;;5091482;28;19912;-57
2022/07/21 07:21:50;;;;;;;;;;;1203.80;716.80;;;;;;5090814;28;20310;-58
2022/07/21 07:24:16;;;;;;;;;;;1255.00;716.80;;;;;;5090556;28;19912;-58
2022/07/21 07:26:41;;;;;;;;;;;1280.50;665.60;;;;;;5091724;28;19912;-57
2022/07/21 07:29:07;;;;;;;;;;;1306.50;614.40;;;;;;5091625;28;19912;-57
2022/07/21 07:31:32;;;;;;;;;;;1331.60;614.40;;;;;;5091800;28;20400;-55
2022/07/21 07:33:58;;;;;;;;;;;1306.30;614.40;;;;;;5091826;28;19908;-59
2022/07/21 07:36:24;;;;;;;;;;;1331.40;614.40;;;;;;5091348;28;20420;-60
2022/07/21 07:38:51;;;;;;;;;;;1331.60;614.40;;;;;;5091632;28;19922;-60
2022/07/21 07:41:17;;;;;;;;;;;1331.90;614.40;;;;;;5090390;28;19920;-58
2022/07/21 07:43:43;;;;;;;;;;;1356.80;614.40;;;;;;5093022;28;20004;-59
2022/07/21 07:46:10;;;;;;;;;;;1331.60;614.40;;;;;;5092825;28;19961;-58
2022/07/21 07:48:36;;;;;;;;;;;1331.60;614.40;;;;;;5091461;28;19909;-59
2022/07/21 07:51:02;;;;;;;;;;;1356.90;588.80;;;;;;5092869;28;19908;-59
2022/07/21 07:53:28;;;;;;;;;;;1357.40;588.80;;;;;;5092327;28;19923;-58
2022/07/21 07:55:53;;;;;;;;;;;1357.10;614.40;;;;;;5092794;28;20370;-58
2022/07/21 07:58:19;;;;;;;;;;;1357.10;614.40;;;;;;5092547;28;19931;-58
2022/07/21 08:00:44;;;;;;;;;;;1357.50;588.80;;;;;;5092603;28;19920;-58
2022/07/21 08:03:10;;;;;;;;;;;1331.70;588.80;;;;;;5092649;28;20008;-58
2022/07/21 08:05:35;;;;;;;;;;;1280.00;665.60;;;;;;5092666;28;19908;-59
2022/07/21 08:08:01;;;;;;;;;;;1306.20;614.40;;;;;;5092599;28;19995;-58
2022/07/21 08:10:27;;;;;;;;;;;1306.50;614.40;;;;;;5092357;28;19923;-58
2022/07/21 08:12:52;;;;;;;;;;;1331.90;614.40;;;;;;5092461;28;20002;-58
2022/07/21 08:15:18;;;;;;;;;;;1356.80;614.40;;;;;;5092168;28;20308;-58
2022/07/21 08:17:43;;;;;;;;;;;1356.90;614.40;;;;;;5092384;28;20266;-58
2022/07/21 08:20:09;;;;;;;;;;;1356.90;614.40;;;;;;5092237;28;19943;-58
2022/07/21 08:22:35;;;;;;;;;;;1306.30;588.80;;;;;;5092114;28;19908;-58
2022/07/21 08:25:01;;;;;;;;;;;1280.50;640.00;;;;;;5092392;28;19915;-58
2022/07/21 08:27:26;;;;;;;;;;;1229.70;640.00;;;;;;5091945;28;20419;-58
2022/07/21 08:29:52;;;;;;;;;;;1152.60;691.20;;;;;;5092194;28;20391;-58
2022/07/21 08:32:18;;;;;;;;;;;1075.40;768.00;;;;;;5091877;28;19912;-58
2022/07/21 08:34:44;;;;;;;;;;;1050.30;819.20;;;;;;5092142;28;19954;-57
2022/07/21 08:37:10;;;;;;;;;;;1024.40;819.20;;;;;;5091658;28;19955;-58
2022/07/21 08:39:35;;;;;;;;;;;998.90;870.40;;;;;;5092047;28;19947;-58
2022/07/21 08:42:01;;;;;;;;;;;998.80;870.40;;;;;;5091936;28;19923;-58
2022/07/21 08:44:26;;;;;;;;;;;973.70;870.40;;;;;;5091781;28;19908;-58
2022/07/21 08:46:52;;;;;;;;;;;973.00;921.60;;;;;;5091663;28;20322;-57
2022/07/21 08:49:22;;;;;;;;;;;948.10;870.40;;;;;;5091569;28;19962;-58
2022/07/21 08:51:48;;;;;;;;;;;973.00;896.00;;;;;;5091448;28;20025;-58
2022/07/21 08:54:13;;;;;;;;;;;973.00;896.00;;;;;;5091817;28;19908;-58
2022/07/21 08:56:39;;;;;;;;;;;973.10;896.00;;;;;;5091481;28;20300;-58
2022/07/21 08:59:05;;;;;;;;;;;972.80;896.00;;;;;;5091501;28;19908;-58
2022/07/21 09:01:31;;;;;;;;;;;922.50;921.60;;;;;;5091241;28;19982;-58
2022/07/21 09:04:16;;;;;;;;;;;947.40;896.00;;;;;;5091440;28;19908;-58
2022/07/21 09:06:49;;;;;;;;;;;947.70;896.00;;;;;;5091440;28;20304;-58
2022/07/21 09:09:19;;;;;;;;;;;948.10;896.00;;;;;;5090218;28;20437;-59
2022/07/21 09:11:45;;;;;;;;;;;948.10;896.00;;;;;;5089704;28;19920;-58
2022/07/21 09:14:18;;;;;;;;;;;948.10;844.80;;;;;;5089566;28;20047;-57
2022/07/21 09:16:51;;;;;;;;;;;948.00;870.40;;;;;;5089816;28;19920;-58
2022/07/21 09:19:17;;;;;;;;;;;972.80;896.00;;;;;;5089590;28;19919;-58
2022/07/21 09:21:43;;;;;;;;;;;947.50;870.40;;;;;;5089838;28;20346;-56
2022/07/21 09:24:16;;;;;;;;;;;947.20;870.40;;;;;;5088999;28;19915;-59
2022/07/21 09:27:00;;;;;;;;;;;947.50;870.40;;;;;;5089561;28;19907;-57
2022/07/21 09:29:26;;;;;;;;;;;947.50;870.40;;;;;;5089243;28;19957;-59
2022/07/21 09:31:52;;;;;;;;;;;947.30;870.40;;;;;;5089525;28;19908;-58
2022/07/21 09:34:20;;;;;;;;;;;947.50;844.80;;;;;;5089241;28;19919;-58
2022/07/21 09:36:56;;;;;;;;;;;947.30;896.00;;;;;;5089001;28;20329;-57
2022/07/21 09:40:02;;;;;;;;;;;947.70;870.40;;;;;;5089163;28;20251;-57
2022/07/21 09:42:28;;;;;;;;;;;947.60;870.40;;;;;;5066213;28;19963;-58
2022/07/21 09:44:54;;;;;;;;;;;947.70;896.00;;;;;;5066230;28;19944;-58
2022/07/21 09:47:20;;;;;;;;;;;947.80;870.40;;;;;;5066043;28;19924;-58
2022/07/21 09:49:46;;;;;;;;;;;947.90;870.40;;;;;;5076367;28;19908;-59
2022/07/21 09:52:41;;;;;;;;;;;947.80;870.40;;;;;;5074275;28;19912;-57
2022/07/21 09:55:09;;;;;;;;;;;947.80;870.40;;;;;;5054580;28;19912;-58
2022/07/21 09:57:35;;;;;;;;;;;947.80;870.40;;;;;;5054570;28;20314;-56
2022/07/21 10:00:02;;;;;;;;;;;947.60;870.40;;;;;;5054483;28;19916;-58
2022/07/21 10:02:29;;;;;;;;;;;947.60;870.40;;;;;;5047418;28;19960;-58
2022/07/21 10:04:59;;;;;;;;;;;947.30;870.40;;;;;;5053793;28;19917;-58
2022/07/21 10:07:26;;;;;;;;;;;947.50;896.00;;;;;;5046403;28;19912;-58
2022/07/21 10:09:52;;;;;;;;;;;922.40;896.00;;;;;;5046211;28;19909;-59
2022/07/21 10:12:18;;;;;;;;;;;922.50;896.00;;;;;;5048413;28;20390;-58
2022/07/21 10:14:44;;;;;;;;;;;922.50;896.00;;;;;;5066028;28;20019;-58
2022/07/21 10:17:09;;;;;;;;;;;922.10;896.00;;;;;;5065970;28;19995;-58
2022/07/21 10:19:54;;;;;;;;;;;922.10;896.00;;;;;;5066462;28;19914;-58
2022/07/21 10:22:23;;;;;;;;;;;921.70;896.00;;;;;;5065957;28;20377;-58
2022/07/21 10:24:49;;;;;;;;;;;921.60;896.00;;;;;;5066038;28;20737;-58
2022/07/21 10:27:15;;;;;;;;;;;922.10;896.00;;;;;;5066306;28;19909;-58
2022/07/21 10:29:53;;;;;;;;;;;922.00;896.00;;;;;;5065741;28;19912;-58
2022/07/21 10:32:21;;;;;;;;;;;921.70;896.00;;;;;;5084606;28;19919;-58
2022/07/21 10:34:48;;;;;;;;;;;922.00;896.00;;;;;;5090878;28;19909;-59
2022/07/21 10:37:32;;;;;;;;;;;922.10;921.60;;;;;;5090620;28;19916;-58
2022/07/21 10:39:58;;;;;;;;;;;922.00;896.00;;;;;;5090070;28;19916;-58
2022/07/21 10:42:23;;;;;;;;;;;922.10;896.00;;;;;;5090060;28;19917;-58
2022/07/21 10:44:49;;;;;;;;;;;922.10;896.00;;;;;;5090049;28;19939;-58
2022/07/21 10:47:23;;;;;;;;;;;922.40;896.00;;;;;;5090185;28;19915;-58
2022/07/21 10:49:50;;;;;;;;;;;922.50;896.00;;;;;;5090027;28;19908;-58
2022/07/21 10:52:34;;;;;;;;;;;922.40;896.00;;;;;;5090422;28;19908;-59
2022/07/21 10:55:28;;;;;;;;;;;922.30;896.00;;;;;;5089900;28;19912;-59
2022/07/21 10:58:13;;;;;;;;;;;922.10;896.00;;;;;;5091515;28;19922;-58
2022/07/21 11:00:59;;;;;;;;;;;922.00;896.00;;;;;;5093468;28;19919;-58
2022/07/21 11:03:26;;;;;;;;;;;922.00;896.00;;;;;;5089675;28;20003;-58
2022/07/21 11:06:11;;;;;;;;;;;922.00;896.00;;;;;;5093972;28;19958;-59
2022/07/21 11:08:37;;;;;;;;;;;921.80;896.00;;;;;;5093774;28;20278;-58
2022/07/21 11:11:29;;;;;;;;;;;921.80;896.00;;;;;;5093845;28;19923;-59
2022/07/21 11:14:06;;;;;;;;;;;921.80;896.00;;;;;;5092368;28;20251;-58
2022/07/21 11:16:52;;;;;;;;;;;921.70;896.00;;;;;;5093883;28;19948;-59
2022/07/21 11:19:37;;;;;;;;;;;921.70;896.00;;;;;;5093204;28;19912;-59
2022/07/21 11:22:15;;;;;;;;;;;921.90;896.00;;;;;;5093319;28;20057;-58
2022/07/21 11:24:42;;;;;;;;;;;921.90;896.00;;;;;;5093354;28;19916;-58
2022/07/21 11:27:14;;;;;;;;;;;922.00;921.60;;;;;;5093200;28;19920;-59
2022/07/21 11:29:41;;;;;;;;;;;922.00;921.60;;;;;;5092986;28;19938;-58
2022/07/21 11:32:07;;;;;;;;;;;921.80;896.00;;;;;;5093051;28;19908;-58
2022/07/21 11:34:52;;;;;;;;;;;922.00;896.00;;;;;;5093129;28;20011;-59
2022/07/21 11:37:26;;;;;;;;;;;922.00;896.00;;;;;;5093044;28;19920;-58
2022/07/21 11:39:51;;;;;;;;;;;921.90;896.00;;;;;;5093135;28;19915;-58
2022/07/21 11:42:17;;;;;;;;;;;921.70;896.00;;;;;;5092936;28;19917;-59
2022/07/21 11:44:43;;;;;;;;;;;922.00;896.00;;;;;;5093098;28;19908;-57
2022/07/21 11:47:13;;;;;;;;;;;921.90;896.00;;;;;;5093070;28;19989;-58
2022/07/21 11:49:39;;;;;;;;;;;921.70;896.00;;;;;;5092676;28;19962;-58
2022/07/21 11:52:09;;;;;;;;;;;921.60;896.00;;;;;;5093068;28;20452;-58
2022/07/21 11:54:44;;;;;;;;;;;921.80;896.00;;;;;;5092944;28;20014;-58
2022/07/21 11:57:10;;;;;;;;;;;921.90;896.00;;;;;;5092412;28;20366;-58
2022/07/21 11:59:36;;;;;;;;;;;921.90;896.00;;;;;;5093079;28;20274;-58
2022/07/21 12:02:04;;;;;;;;;;;921.60;896.00;;;;;;5091235;28;19973;-57
2022/07/21 12:04:34;;;;;;;;;;;896.90;870.40;;;;;;5091653;28;19946;-57
2022/07/21 12:06:59;;;;;;;;;;;896.80;870.40;;;;;;5091311;28;19995;-58
2022/07/21 12:09:25;;;;;;;;;;;921.70;921.60;;;;;;5091063;28;20332;-57
2022/07/21 12:11:51;;;;;;;;;;;921.90;896.00;;;;;;5091193;28;19939;-57
2022/07/21 12:14:16;;;;;;;;;;;921.90;896.00;;;;;;5091058;28;19908;-59
2022/07/21 12:16:52;;;;;;;;;;;921.90;896.00;;;;;;5090957;28;19960;-58
2022/07/21 12:19:19;;;;;;;;;;;921.70;896.00;;;;;;5090861;28;20376;-58
2022/07/21 12:21:52;;;;;;;;;;;921.90;896.00;;;;;;5091073;28;19917;-57
2022/07/21 12:24:18;;;;;;;;;;;921.90;896.00;;;;;;5090710;28;19916;-58
2022/07/21 12:26:44;;;;;;;;;;;922.00;896.00;;;;;;5091023;28;19908;-58
2022/07/21 12:29:23;;;;;;;;;;;922.00;896.00;;;;;;5087878;28;19908;-58
2022/07/21 12:31:49;;;;;;;;;;;921.70;896.00;;;;;;5090643;28;19912;-57
2022/07/21 12:34:15;;;;;;;;;;;921.80;896.00;;;;;;5090907;28;19961;-58
2022/07/21 12:36:41;;;;;;;;;;;922.00;896.00;;;;;;5090658;28;19916;-58
2022/07/21 12:42:02;;;;;;;;;;;922.00;896.00;;;;;;5089580;28;20007;-59
2022/07/21 12:44:27;;;;;;;;;;;922.00;896.00;;;;;;5090732;28;20011;-58
2022/07/21 12:46:53;;;;;;;;;;;922.00;896.00;;;;;;5090465;28;19908;-58
2022/07/21 12:49:19;;;;;;;;;;;922.00;896.00;;;;;;5090090;28;20004;-59
2022/07/21 12:51:54;;;;;;;;;;;922.00;896.00;;;;;;5090631;28;19947;-59
2022/07/21 12:54:20;;;;;;;;;;;921.70;896.00;;;;;;5089597;28;19916;-58
2022/07/21 12:56:45;;;;;;;;;;;896.90;870.40;;;;;;5090752;28;20393;-55
2022/07/21 12:59:14;;;;;;;;;;;921.90;896.00;;;;;;5091245;28;20013;-58
2022/07/21 13:01:39;;;;;;;;;;;922.00;896.00;;;;;;5071038;28;20416;-59
2022/07/21 13:04:05;;;;;;;;;;;922.00;896.00;;;;;;5071275;28;19944;-56
2022/07/21 13:06:31;;;;;;;;;;;922.20;896.00;;;;;;5071206;28;20003;-59
2022/07/21 13:08:56;;;;;;;;;;;922.20;896.00;;;;;;5071097;28;19909;-58
2022/07/21 13:11:22;;;;;;;;;;;922.00;896.00;;;;;;5071062;28;20082;-58
2022/07/21 13:13:49;;;;;;;;;;;921.80;896.00;;;;;;5081083;28;19927;-55
2022/07/21 13:16:14;;;;;;;;;;;896.90;870.40;;;;;;5090704;28;19967;-58
2022/07/21 13:18:40;;;;;;;;;;;921.80;921.60;;;;;;5088076;28;19988;-58
2022/07/21 13:21:06;;;;;;;;;;;922.00;896.00;;;;;;5090658;28;19930;-58
2022/07/21 13:23:32;;;;;;;;;;;922.00;921.60;;;;;;5091218;28;19951;-56
2022/07/21 13:25:57;;;;;;;;;;;922.00;921.60;;;;;;5091020;28;19908;-57
2022/07/21 13:28:23;;;;;;;;;;;922.10;921.60;;;;;;5090702;28;19919;-55
2022/07/21 13:30:48;;;;;;;;;;;922.10;896.00;;;;;;5091037;28;19909;-59
2022/07/21 13:33:14;;;;;;;;;;;922.00;896.00;;;;;;5091082;28;20006;-59
2022/07/21 13:35:40;;;;;;;;;;;922.00;896.00;;;;;;5090768;28;19912;-59
2022/07/21 13:38:06;;;;;;;;;;;921.80;896.00;;;;;;5090762;28;19919;-59
2022/07/21 13:40:31;;;;;;;;;;;921.80;896.00;;;;;;5091077;28;19930;-58
2022/07/21 13:42:57;;;;;;;;;;;921.90;896.00;;;;;;5090788;28;19908;-58
2022/07/21 13:45:23;;;;;;;;;;;921.60;896.00;;;;;;5091119;28;19919;-58
2022/07/21 13:47:48;;;;;;;;;;;921.60;896.00;;;;;;5090618;28;19908;-58
2022/07/21 13:50:14;;;;;;;;;;;921.70;896.00;;;;;;5090943;28;19908;-58
2022/07/21 13:52:40;;;;;;;;;;;921.60;921.60;;;;;;5090390;28;19908;-59